sensor_id;sensor_type;location;lat;lon;timestamp;pressure;altitude;pressure_sealevel;temperature;humidity
5879;BME280;2965;42.640;23.370;2023-02-11T05:01:36;96102.63;;;-4.79;100.00
5879;BME280;2965;42.640;23.370;2023-02-11T05:04:01;96101.88;;;-4.82;100.00
5879;BME280;2965;42.640;23.370;2023-02-11T05:06:27;96102.53;;;-4.76;100.00
5879;BME280;2965;42.640;23.370;2023-02-11T05:08:52;96091.69;;;-5.08;100.00
5879;BME280;2965;42.640;23.370;2023-02-11T05:11:21;96096.91;;;-5.11;100.00
5879;BME280;2965;42.640;23.370;2023-02-11T05:13:47;96103.13;;;-5.20;100.00
5879;BME280;2965;42.640;23.370;2023-02-11T05:16:14;96095.53;;;-5.21;100.00
5879;BME280;2965;42.640;23.370;2023-02-11T05:18:41;96097.81;;;-5.14;100.00
5879;BME280;2965;42.640;23.370;2023-02-11T05:21:09;96096.81;;;-5.08;100.00
5879;BME280;2965;42.640;23.370;2023-02-11T05:23:35;96091.31;;;-5.22;100.00
5879;BME280;2965;42.640;23.370;2023-02-11T05:26:01;96088.78;;;-5.22;100.00
5879;BME280;2965;42.640;23.370;2023-02-11T05:28:27;96096.75;;;-5.33;100.00
5879;BME280;2965;42.640;23.370;2023-02-11T05:30:52;96098.56;;;-5.37;100.00
5879;BME280;2965;42.640;23.370;2023-02-11T05:33:18;96106.34;;;-5.40;100.00
5879;BME280;2965;42.640;23.370;2023-02-11T05:35:43;96100.56;;;-5.46;100.00
5879;BME280;2965;42.640;23.370;2023-02-11T05:38:08;96101.25;;;-5.68;100.00
5879;BME280;2965;42.640;23.370;2023-02-11T05:40:34;96091.78;;;-5.64;100.00
5879;BME280;2965;42.640;23.370;2023-02-11T05:42:59;96091.97;;;-5.70;100.00
5879;BME280;2965;42.640;23.370;2023-02-11T05:45:25;96088.41;;;-5.65;100.00
5879;BME280;2965;42.640;23.370;2023-02-11T05:47:50;96094.41;;;-5.67;100.00
5879;BME280;2965;42.640;23.370;2023-02-11T05:50:15;96094.22;;;-5.88;100.00
5879;BME280;2965;42.640;23.370;2023-02-11T05:52:41;96101.72;;;-5.83;100.00
5879;BME280;2965;42.640;23.370;2023-02-11T05:55:06;96102.97;;;-5.68;100.00
5879;BME280;2965;42.640;23.370;2023-02-11T05:57:32;96098.19;;;-5.51;100.00
5879;BME280;2965;42.640;23.370;2023-02-11T05:59:58;96101.53;;;-5.49;100.00
5879;BME280;2965;42.640;23.370;2023-02-11T06:02:23;96106.50;;;-5.46;100.00
5879;BME280;2965;42.640;23.370;2023-02-11T06:04:48;96113.56;;;-5.27;100.00
5879;BME280;2965;42.640;23.370;2023-02-11T06:07:14;96117.69;;;-5.23;100.00
5879;BME280;2965;42.640;23.370;2023-02-11T06:09:39;96110.25;;;-5.29;100.00
5879;BME280;2965;42.640;23.370;2023-02-11T06:12:05;96112.34;;;-5.42;100.00
5879;BME280;2965;42.640;23.370;2023-02-11T06:14:33;96118.81;;;-5.30;100.00
5879;BME280;2965;42.640;23.370;2023-02-11T06:16:59;96113.88;;;-5.37;100.00
5879;BME280;2965;42.640;23.370;2023-02-11T06:19:24;96115.78;;;-5.71;100.00
5879;BME280;2965;42.640;23.370;2023-02-11T06:21:49;96118.78;;;-5.57;100.00
5879;BME280;2965;42.640;23.370;2023-02-11T06:24:15;96122.00;;;-5.52;100.00
5879;BME280;2965;42.640;23.370;2023-02-11T06:26:40;96114.44;;;-5.55;100.00
5879;BME280;2965;42.640;23.370;2023-02-11T06:29:06;96121.06;;;-5.49;100.00
5879;BME280;2965;42.640;23.370;2023-02-11T06:31:31;96127.50;;;-5.38;100.00
5879;BME280;2965;42.640;23.370;2023-02-11T06:33:56;96122.72;;;-5.20;100.00
5879;BME280;2965;42.640;23.370;2023-02-11T06:36:23;96128.66;;;-5.20;100.00
5879;BME280;2965;42.640;23.370;2023-02-11T06:38:49;96110.44;;;-5.09;100.00
5879;BME280;2965;42.640;23.370;2023-02-11T06:41:16;96114.41;;;-5.00;100.00
5879;BME280;2965;42.640;23.370;2023-02-11T06:43:44;96121.34;;;-4.79;100.00
5879;BME280;2965;42.640;23.370;2023-02-11T06:46:10;96120.88;;;-4.90;100.00
5879;BME280;2965;42.640;23.370;2023-02-11T06:48:35;96126.28;;;-4.74;100.00
5879;BME280;2965;42.640;23.370;2023-02-11T06:51:06;96121.50;;;-4.59;100.00
5879;BME280;2965;42.640;23.370;2023-02-11T06:53:35;96130.59;;;-4.50;100.00
5879;BME280;2965;42.640;23.370;2023-02-11T06:56:05;96131.66;;;-4.57;100.00
5879;BME280;2965;42.640;23.370;2023-02-11T06:58:31;96130.34;;;-4.44;100.00
5879;BME280;2965;42.640;23.370;2023-02-11T07:00:57;96125.88;;;-4.37;100.00
5879;BME280;2965;42.640;23.370;2023-02-11T07:03:22;96125.28;;;-4.20;100.00
5879;BME280;2965;42.640;23.370;2023-02-11T07:05:48;96130.06;;;-4.11;100.00
5879;BME280;2965;42.640;23.370;2023-02-11T07:08:13;96133.28;;;-4.06;100.00
5879;BME280;2965;42.640;23.370;2023-02-11T07:10:39;96124.56;;;-4.00;100.00
5879;BME280;2965;42.640;23.370;2023-02-11T07:13:04;96123.06;;;-4.06;100.00
5879;BME280;2965;42.640;23.370;2023-02-11T07:15:30;96125.38;;;-4.00;100.00
5879;BME280;2965;42.640;23.370;2023-02-11T07:17:55;96125.28;;;-3.97;100.00
5879;BME280;2965;42.640;23.370;2023-02-11T07:20:20;96116.75;;;-3.74;100.00
5879;BME280;2965;42.640;23.370;2023-02-11T07:22:46;96109.97;;;-3.53;100.00
5879;BME280;2965;42.640;23.370;2023-02-11T07:25:11;96109.91;;;-3.30;100.00
5879;BME280;2965;42.640;23.370;2023-02-11T07:27:36;96099.47;;;-3.25;100.00
5879;BME280;2965;42.640;23.370;2023-02-11T07:30:03;96099.94;;;-3.15;100.00
5879;BME280;2965;42.640;23.370;2023-02-11T07:32:28;96107.72;;;-3.39;100.00
5879;BME280;2965;42.640;23.370;2023-02-11T07:34:53;96094.97;;;-3.18;100.00
5879;BME280;2965;42.640;23.370;2023-02-11T07:37:19;96106.22;;;-3.22;100.00
5879;BME280;2965;42.640;23.370;2023-02-11T07:39:44;96097.25;;;-3.12;100.00
5879;BME280;2965;42.640;23.370;2023-02-11T07:42:10;96089.84;;;-2.98;100.00
5879;BME280;2965;42.640;23.370;2023-02-11T07:44:35;96088.50;;;-2.86;100.00
5879;BME280;2965;42.640;23.370;2023-02-11T07:47:01;96090.56;;;-2.74;100.00
5879;BME280;2965;42.640;23.370;2023-02-11T07:49:27;96090.09;;;-2.84;100.00
5879;BME280;2965;42.640;23.370;2023-02-11T07:51:52;96087.41;;;-2.81;100.00
5879;BME280;2965;42.640;23.370;2023-02-11T07:54:18;96086.91;;;-2.89;100.00
5879;BME280;2965;42.640;23.370;2023-02-11T07:56:43;96081.00;;;-2.70;100.00
5879;BME280;2965;42.640;23.370;2023-02-11T07:59:10;96082.88;;;-2.94;100.00
5879;BME280;2965;42.640;23.370;2023-02-11T08:01:35;96076.22;;;-2.98;100.00
5879;BME280;2965;42.640;23.370;2023-02-11T08:04:02;96086.34;;;-2.95;100.00
5879;BME280;2965;42.640;23.370;2023-02-11T08:06:30;96076.53;;;-2.86;100.00
5879;BME280;2965;42.640;23.370;2023-02-11T08:08:56;96071.66;;;-2.71;100.00
5879;BME280;2965;42.640;23.370;2023-02-11T08:11:23;96066.22;;;-2.64;100.00
5879;BME280;2965;42.640;23.370;2023-02-11T08:13:50;96075.38;;;-2.58;98.94
5879;BME280;2965;42.640;23.370;2023-02-11T08:16:27;96075.13;;;-2.52;96.99
5879;BME280;2965;42.640;23.370;2023-02-11T08:18:55;96067.28;;;-2.49;96.95
5879;BME280;2965;42.640;23.370;2023-02-11T08:21:22;96066.25;;;-2.45;95.19
5879;BME280;2965;42.640;23.370;2023-02-11T08:23:48;96067.91;;;-2.44;92.71
5879;BME280;2965;42.640;23.370;2023-02-11T08:26:22;96071.53;;;-2.29;93.47
5879;BME280;2965;42.640;23.370;2023-02-11T08:28:49;96073.91;;;-2.24;90.53
5879;BME280;2965;42.640;23.370;2023-02-11T08:31:17;96070.84;;;-1.95;93.59
5879;BME280;2965;42.640;23.370;2023-02-11T08:33:42;96063.94;;;-1.93;89.93
5879;BME280;2965;42.640;23.370;2023-02-11T08:36:13;96065.78;;;-1.78;90.84
5879;BME280;2965;42.640;23.370;2023-02-11T08:38:39;96068.25;;;-1.57;91.27
5879;BME280;2965;42.640;23.370;2023-02-11T08:41:05;96071.66;;;-1.57;88.40
5879;BME280;2965;42.640;23.370;2023-02-11T08:43:31;96073.03;;;-1.68;85.70
5879;BME280;2965;42.640;23.370;2023-02-11T08:45:57;96070.81;;;-1.57;86.31
5879;BME280;2965;42.640;23.370;2023-02-11T08:48:23;96064.81;;;-1.39;88.29
5879;BME280;2965;42.640;23.370;2023-02-11T08:50:48;96064.81;;;-1.39;87.01
5879;BME280;2965;42.640;23.370;2023-02-11T08:53:13;96077.59;;;-1.37;86.46
5879;BME280;2965;42.640;23.370;2023-02-11T08:55:39;96080.84;;;-1.16;86.11
5879;BME280;2965;42.640;23.370;2023-02-11T08:58:04;96069.69;;;-0.98;85.07
5879;BME280;2965;42.640;23.370;2023-02-11T09:00:30;96068.63;;;-0.94;87.24
5879;BME280;2965;42.640;23.370;2023-02-11T09:02:55;96073.03;;;-0.79;85.82
5879;BME280;2965;42.640;23.370;2023-02-11T09:05:21;96073.47;;;-0.70;86.35
5879;BME280;2965;42.640;23.370;2023-02-11T09:07:47;96068.88;;;-0.31;85.82
5879;BME280;2965;42.640;23.370;2023-02-11T09:10:12;96063.84;;;-0.16;83.28
5879;BME280;2965;42.640;23.370;2023-02-11T09:12:38;96069.94;;;-0.35;83.21
5879;BME280;2965;42.640;23.370;2023-02-11T09:15:03;96069.28;;;-0.22;84.87
5879;BME280;2965;42.640;23.370;2023-02-11T09:17:29;96056.16;;;-0.34;84.28
5879;BME280;2965;42.640;23.370;2023-02-11T09:19:54;96061.09;;;-0.13;84.24
5879;BME280;2965;42.640;23.370;2023-02-11T09:22:20;96051.06;;;-0.02;82.16
5879;BME280;2965;42.640;23.370;2023-02-11T09:24:46;96061.25;;;-0.16;81.92
5879;BME280;2965;42.640;23.370;2023-02-11T09:27:11;96040.44;;;0.04;81.15
5879;BME280;2965;42.640;23.370;2023-02-11T09:29:37;96051.22;;;0.42;80.75
5879;BME280;2965;42.640;23.370;2023-02-11T09:32:02;96053.56;;;0.47;80.75
5879;BME280;2965;42.640;23.370;2023-02-11T09:34:28;96047.41;;;0.34;79.20
5879;BME280;2965;42.640;23.370;2023-02-11T09:36:53;96045.91;;;0.45;78.01
5879;BME280;2965;42.640;23.370;2023-02-11T09:39:19;96038.13;;;0.77;80.95
5879;BME280;2965;42.640;23.370;2023-02-11T09:44:34;96036.13;;;1.12;76.48
5879;BME280;2965;42.640;23.370;2023-02-11T09:47:24;96019.34;;;1.05;74.26
5879;BME280;2965;42.640;23.370;2023-02-11T09:50:05;96018.06;;;0.98;71.55
5879;BME280;2965;42.640;23.370;2023-02-11T09:52:43;96015.34;;;1.44;73.72
5879;BME280;2965;42.640;23.370;2023-02-11T09:55:20;96014.06;;;1.80;73.61
5879;BME280;2965;42.640;23.370;2023-02-11T09:57:47;96005.84;;;1.87;71.99
5879;BME280;2965;42.640;23.370;2023-02-11T10:00:26;96006.72;;;2.15;70.66
5879;BME280;2965;42.640;23.370;2023-02-11T10:05:36;95992.63;;;2.06;71.04
5879;BME280;2965;42.640;23.370;2023-02-11T10:11:07;95981.72;;;2.69;66.91
5879;BME280;2965;42.640;23.370;2023-02-11T10:14:11;95979.28;;;2.81;67.38
5879;BME280;2965;42.640;23.370;2023-02-11T10:19:49;95958.09;;;3.39;64.32
5879;BME280;2965;42.640;23.370;2023-02-11T10:22:40;95966.91;;;3.11;62.43
5879;BME280;2965;42.640;23.370;2023-02-11T10:27:44;95945.78;;;3.43;63.69
5879;BME280;2965;42.640;23.370;2023-02-11T10:32:51;95920.75;;;3.31;61.27
5879;BME280;2965;42.640;23.370;2023-02-11T10:35:21;95921.69;;;3.29;58.88
5879;BME280;2965;42.640;23.370;2023-02-11T10:37:48;95906.50;;;3.25;59.19
5879;BME280;2965;42.640;23.370;2023-02-11T10:40:16;95914.75;;;3.17;58.45
5879;BME280;2965;42.640;23.370;2023-02-11T10:42:47;95897.19;;;3.22;59.30
5879;BME280;2965;42.640;23.370;2023-02-11T10:47:50;95889.47;;;3.96;56.91
5879;BME280;2965;42.640;23.370;2023-02-11T10:50:27;95879.09;;;4.55;56.29
5879;BME280;2965;42.640;23.370;2023-02-11T10:53:10;95876.44;;;4.33;55.18
5879;BME280;2965;42.640;23.370;2023-02-11T10:55:36;95869.13;;;4.26;53.22
5879;BME280;2965;42.640;23.370;2023-02-11T10:58:02;95868.31;;;4.37;52.48
5879;BME280;2965;42.640;23.370;2023-02-11T11:00:35;95863.66;;;4.18;52.60
5879;BME280;2965;42.640;23.370;2023-02-11T11:03:16;95857.97;;;4.84;53.38
5879;BME280;2965;42.640;23.370;2023-02-11T11:05:47;95849.44;;;4.59;52.88
5879;BME280;2965;42.640;23.370;2023-02-11T11:08:14;95855.63;;;4.92;53.87
5879;BME280;2965;42.640;23.370;2023-02-11T11:10:45;95857.28;;;5.60;52.22
5879;BME280;2965;42.640;23.370;2023-02-11T11:13:31;95853.75;;;5.16;50.17
5879;BME280;2965;42.640;23.370;2023-02-11T11:18:37;95851.63;;;5.32;51.04
5879;BME280;2965;42.640;23.370;2023-02-11T11:21:19;95846.91;;;5.04;49.56
5879;BME280;2965;42.640;23.370;2023-02-11T11:23:59;95845.63;;;4.87;50.62
5879;BME280;2965;42.640;23.370;2023-02-11T11:26:28;95838.66;;;5.32;51.34
5879;BME280;2965;42.640;23.370;2023-02-11T11:29:12;95846.59;;;5.86;51.22
5879;BME280;2965;42.640;23.370;2023-02-11T11:32:14;95842.66;;;5.48;51.14
5879;BME280;2965;42.640;23.370;2023-02-11T11:34:48;95836.50;;;5.60;49.11
5879;BME280;2965;42.640;23.370;2023-02-11T11:37:26;95833.91;;;5.71;49.64
5879;BME280;2965;42.640;23.370;2023-02-11T11:39:57;95835.97;;;6.53;48.37
5879;BME280;2965;42.640;23.370;2023-02-11T11:42:29;95831.13;;;6.27;47.50
5879;BME280;2965;42.640;23.370;2023-02-11T11:47:52;95819.69;;;5.98;49.41
5879;BME280;2965;42.640;23.370;2023-02-11T11:50:31;95820.50;;;6.30;49.35
5879;BME280;2965;42.640;23.370;2023-02-11T11:53:03;95814.97;;;6.45;48.73
5879;BME280;2965;42.640;23.370;2023-02-11T11:55:49;95818.19;;;6.16;47.50
5879;BME280;2965;42.640;23.370;2023-02-11T11:58:21;95812.72;;;6.19;46.84
5879;BME280;2965;42.640;23.370;2023-02-11T12:11:32;95778.38;;;6.78;47.40
5879;BME280;2965;42.640;23.370;2023-02-11T12:17:10;95774.72;;;7.71;45.10
5879;BME280;2965;42.640;23.370;2023-02-11T12:22:35;95763.38;;;7.22;46.26
5879;BME280;2965;42.640;23.370;2023-02-11T12:27:58;95763.56;;;7.50;46.55
5879;BME280;2965;42.640;23.370;2023-02-11T18:14:39;95653.38;;;0.37;63.86
5879;BME280;2965;42.640;23.370;2023-02-11T18:17:05;95646.84;;;0.45;64.02
5879;BME280;2965;42.640;23.370;2023-02-11T18:19:31;95646.00;;;0.45;63.85
5879;BME280;2965;42.640;23.370;2023-02-11T18:21:59;95649.84;;;0.52;63.03
5879;BME280;2965;42.640;23.370;2023-02-11T18:24:25;95654.44;;;0.47;63.73
5879;BME280;2965;42.640;23.370;2023-02-11T18:26:51;95637.91;;;0.51;63.69
5879;BME280;2965;42.640;23.370;2023-02-11T18:29:16;95645.09;;;0.46;63.10
5879;BME280;2965;42.640;23.370;2023-02-11T18:31:41;95640.75;;;0.46;62.94
5879;BME280;2965;42.640;23.370;2023-02-11T18:34:07;95643.22;;;0.48;64.22
5879;BME280;2965;42.640;23.370;2023-02-11T18:36:35;95633.88;;;0.33;63.78
5879;BME280;2965;42.640;23.370;2023-02-11T18:39:00;95635.00;;;0.29;64.57
5879;BME280;2965;42.640;23.370;2023-02-11T18:41:26;95632.13;;;0.33;64.73
5879;BME280;2965;42.640;23.370;2023-02-11T18:43:52;95625.69;;;0.26;65.00
5879;BME280;2965;42.640;23.370;2023-02-11T18:46:17;95622.03;;;0.16;65.40
5879;BME280;2965;42.640;23.370;2023-02-11T18:48:46;95617.00;;;0.14;64.83
5879;BME280;2965;42.640;23.370;2023-02-11T18:51:14;95616.25;;;0.12;65.31
5879;BME280;2965;42.640;23.370;2023-02-11T18:53:40;95611.47;;;0.06;65.38
5879;BME280;2965;42.640;23.370;2023-02-11T18:56:08;95611.66;;;0.03;65.89
5879;BME280;2965;42.640;23.370;2023-02-11T18:58:34;95617.34;;;0.08;65.02
5879;BME280;2965;42.640;23.370;2023-02-11T19:01:08;95614.22;;;0.03;64.45
5879;BME280;2965;42.640;23.370;2023-02-11T19:03:34;95620.47;;;0.28;63.79
5879;BME280;2965;42.640;23.370;2023-02-11T19:05:59;95614.00;;;0.49;62.52
5879;BME280;2965;42.640;23.370;2023-02-11T19:08:25;95614.69;;;0.65;60.41
5879;BME280;2965;42.640;23.370;2023-02-11T19:10:50;95615.38;;;0.82;60.27
5879;BME280;2965;42.640;23.370;2023-02-11T19:13:16;95607.78;;;0.93;60.09
5879;BME280;2965;42.640;23.370;2023-02-11T19:15:43;95620.13;;;0.88;58.66
5879;BME280;2965;42.640;23.370;2023-02-11T19:18:09;95609.34;;;0.68;58.92
5879;BME280;2965;42.640;23.370;2023-02-11T19:20:38;95607.19;;;0.48;58.85
5879;BME280;2965;42.640;23.370;2023-02-11T19:23:03;95605.94;;;0.27;59.55
5879;BME280;2965;42.640;23.370;2023-02-11T19:25:28;95603.59;;;0.09;57.19
5879;BME280;2965;42.640;23.370;2023-02-11T19:27:54;95610.81;;;0.31;53.44
5879;BME280;2965;42.640;23.370;2023-02-11T19:30:19;95608.41;;;0.96;49.16
5879;BME280;2965;42.640;23.370;2023-02-11T19:32:45;95611.22;;;1.06;49.33
5879;BME280;2965;42.640;23.370;2023-02-11T19:35:10;95609.91;;;1.13;49.36
5879;BME280;2965;42.640;23.370;2023-02-11T19:37:35;95589.28;;;1.13;50.08
5879;BME280;2965;42.640;23.370;2023-02-11T19:40:01;95587.84;;;1.09;50.93
5879;BME280;2965;42.640;23.370;2023-02-11T19:42:26;95588.88;;;1.07;51.28
5879;BME280;2965;42.640;23.370;2023-02-11T19:44:52;95584.31;;;1.10;51.17
5879;BME280;2965;42.640;23.370;2023-02-11T19:47:17;95580.44;;;1.17;51.08
5879;BME280;2965;42.640;23.370;2023-02-11T19:49:43;95581.88;;;1.21;51.48
5879;BME280;2965;42.640;23.370;2023-02-11T19:52:09;95580.25;;;1.20;50.67
5879;BME280;2965;42.640;23.370;2023-02-11T19:54:34;95577.56;;;1.35;50.67
5879;BME280;2965;42.640;23.370;2023-02-11T19:56:59;95584.19;;;1.39;50.84
5879;BME280;2965;42.640;23.370;2023-02-11T19:59:25;95578.31;;;1.49;50.70
5879;BME280;2965;42.640;23.370;2023-02-11T20:01:50;95581.28;;;1.31;51.34
5879;BME280;2965;42.640;23.370;2023-02-11T20:04:17;95578.78;;;1.16;51.88
5879;BME280;2965;42.640;23.370;2023-02-11T20:06:44;95575.63;;;0.86;52.62
5879;BME280;2965;42.640;23.370;2023-02-11T20:09:12;95568.56;;;0.75;53.96
5879;BME280;2965;42.640;23.370;2023-02-11T20:11:38;95568.38;;;0.51;54.82
5879;BME280;2965;42.640;23.370;2023-02-11T20:14:04;95577.44;;;0.71;51.98
5879;BME280;2965;42.640;23.370;2023-02-11T20:16:31;95568.56;;;0.75;52.57
5879;BME280;2965;42.640;23.370;2023-02-11T20:18:57;95559.03;;;0.90;51.44
5879;BME280;2965;42.640;23.370;2023-02-11T20:21:25;95556.06;;;0.96;51.74
5879;BME280;2965;42.640;23.370;2023-02-11T20:23:52;95557.19;;;0.92;52.13
5879;BME280;2965;42.640;23.370;2023-02-11T20:26:25;95552.47;;;0.98;51.20
5879;BME280;2965;42.640;23.370;2023-02-11T20:28:52;95554.41;;;0.95;51.99
5879;BME280;2965;42.640;23.370;2023-02-11T20:31:18;95553.81;;;1.04;51.11
5879;BME280;2965;42.640;23.370;2023-02-11T20:33:44;95547.41;;;0.97;52.09
5879;BME280;2965;42.640;23.370;2023-02-11T20:36:24;95559.38;;;0.98;52.55
5879;BME280;2965;42.640;23.370;2023-02-11T20:38:50;95543.47;;;0.91;52.88
5879;BME280;2965;42.640;23.370;2023-02-11T20:41:17;95548.91;;;0.87;52.37
5879;BME280;2965;42.640;23.370;2023-02-11T20:43:45;95549.66;;;0.89;52.14
5879;BME280;2965;42.640;23.370;2023-02-11T20:46:14;95538.94;;;0.95;51.74
5879;BME280;2965;42.640;23.370;2023-02-11T20:48:40;95541.03;;;1.03;51.59
5879;BME280;2965;42.640;23.370;2023-02-11T20:51:10;95533.53;;;1.12;50.44
5879;BME280;2965;42.640;23.370;2023-02-11T20:53:38;95539.00;;;1.20;50.31
5879;BME280;2965;42.640;23.370;2023-02-11T20:56:05;95522.91;;;1.30;50.59
5879;BME280;2965;42.640;23.370;2023-02-11T20:58:31;95524.75;;;1.40;51.03
5879;BME280;2965;42.640;23.370;2023-02-11T21:01:05;95527.13;;;1.31;51.20
5879;BME280;2965;42.640;23.370;2023-02-11T21:03:30;95518.38;;;1.33;51.20
5879;BME280;2965;42.640;23.370;2023-02-11T21:05:58;95520.66;;;1.38;51.14
5879;BME280;2965;42.640;23.370;2023-02-11T21:08:24;95513.19;;;1.46;50.87
5879;BME280;2965;42.640;23.370;2023-02-11T21:10:49;95506.72;;;1.53;51.11
5879;BME280;2965;42.640;23.370;2023-02-11T21:13:14;95506.84;;;1.39;51.77
5879;BME280;2965;42.640;23.370;2023-02-11T21:15:40;95499.41;;;1.34;51.72
5879;BME280;2965;42.640;23.370;2023-02-11T21:18:05;95500.03;;;1.38;52.13
5879;BME280;2965;42.640;23.370;2023-02-11T21:20:30;95489.72;;;1.25;52.59
5879;BME280;2965;42.640;23.370;2023-02-11T21:22:56;95487.44;;;1.08;53.84
5879;BME280;2965;42.640;23.370;2023-02-11T21:25:21;95492.97;;;1.01;53.72
5879;BME280;2965;42.640;23.370;2023-02-11T21:27:47;95486.81;;;1.04;54.11
5879;BME280;2965;42.640;23.370;2023-02-11T21:30:12;95486.09;;;1.02;53.71
5879;BME280;2965;42.640;23.370;2023-02-11T21:32:38;95477.13;;;0.95;53.94
5879;BME280;2965;42.640;23.370;2023-02-11T21:35:03;95485.16;;;1.03;54.10
5879;BME280;2965;42.640;23.370;2023-02-11T21:37:29;95494.84;;;1.12;54.70
5879;BME280;2965;42.640;23.370;2023-02-11T21:39:54;95482.09;;;1.11;55.35
5879;BME280;2965;42.640;23.370;2023-02-11T21:42:20;95482.47;;;0.92;55.99
5879;BME280;2965;42.640;23.370;2023-02-11T21:44:45;95494.81;;;0.87;55.83
5879;BME280;2965;42.640;23.370;2023-02-11T21:47:10;95479.66;;;0.82;56.15
5879;BME280;2965;42.640;23.370;2023-02-11T21:49:36;95484.31;;;0.77;59.34
5879;BME280;2965;42.640;23.370;2023-02-11T21:52:01;95474.41;;;0.71;57.01
5879;BME280;2965;42.640;23.370;2023-02-11T21:54:26;95480.31;;;0.46;57.92
5879;BME280;2965;42.640;23.370;2023-02-11T21:56:56;95478.16;;;0.25;58.73
5879;BME280;2965;42.640;23.370;2023-02-11T21:59:22;95475.84;;;0.08;58.65
